sensor_id;sensor_type;location;lat;lon;timestamp;P1;durP1;ratioP1;P2;durP2;ratioP2
56297;SDS011;42208;6.376;-10.782;2022-07-09T00:00:44;37.63;;;15.05;;
56297;SDS011;42208;6.376;-10.782;2022-07-09T00:03:13;35.42;;;15.07;;
56297;SDS011;42208;6.376;-10.782;2022-07-09T00:05:41;28.88;;;12.10;;
56297;SDS011;42208;6.376;-10.782;2022-07-09T00:08:09;27.95;;;13.05;;
56297;SDS011;42208;6.376;-10.782;2022-07-09T00:10:38;33.00;;;12.25;;
56297;SDS011;42208;6.376;-10.782;2022-07-09T00:13:06;37.50;;;13.60;;
56297;SDS011;42208;6.376;-10.782;2022-07-09T00:15:34;34.70;;;14.52;;
56297;SDS011;42208;6.376;-10.782;2022-07-09T00:18:03;33.65;;;14.60;;
56297;SDS011;42208;6.376;-10.782;2022-07-09T00:20:31;38.50;;;17.40;;
56297;SDS011;42208;6.376;-10.782;2022-07-09T00:22:59;45.63;;;20.50;;
56297;SDS011;42208;6.376;-10.782;2022-07-09T00:25:27;63.20;;;30.73;;
56297;SDS011;42208;6.376;-10.782;2022-07-09T00:27:56;34.72;;;12.18;;
56297;SDS011;42208;6.376;-10.782;2022-07-09T00:30:24;42.70;;;20.02;;
56297;SDS011;42208;6.376;-10.782;2022-07-09T00:32:52;35.53;;;16.42;;
56297;SDS011;42208;6.376;-10.782;2022-07-09T00:35:20;37.47;;;19.15;;
56297;SDS011;42208;6.376;-10.782;2022-07-09T00:37:48;28.20;;;14.07;;
56297;SDS011;42208;6.376;-10.782;2022-07-09T00:40:17;45.20;;;21.17;;
56297;SDS011;42208;6.376;-10.782;2022-07-09T00:42:45;32.78;;;13.75;;
56297;SDS011;42208;6.376;-10.782;2022-07-09T00:45:13;27.63;;;12.75;;
56297;SDS011;42208;6.376;-10.782;2022-07-09T00:47:42;48.45;;;25.58;;
56297;SDS011;42208;6.376;-10.782;2022-07-09T00:50:10;73.10;;;33.15;;
56297;SDS011;42208;6.376;-10.782;2022-07-09T00:52:39;79.15;;;38.95;;
56297;SDS011;42208;6.376;-10.782;2022-07-09T00:55:08;62.10;;;32.00;;
56297;SDS011;42208;6.376;-10.782;2022-07-09T00:57:37;69.65;;;34.15;;
56297;SDS011;42208;6.376;-10.782;2022-07-09T01:00:08;72.85;;;37.47;;
56297;SDS011;42208;6.376;-10.782;2022-07-09T01:02:36;61.78;;;33.30;;
56297;SDS011;42208;6.376;-10.782;2022-07-09T01:05:05;41.70;;;21.20;;
56297;SDS011;42208;6.376;-10.782;2022-07-09T01:07:33;42.92;;;18.17;;
56297;SDS011;42208;6.376;-10.782;2022-07-09T01:10:02;46.72;;;20.30;;
56297;SDS011;42208;6.376;-10.782;2022-07-09T01:12:31;23.60;;;12.15;;
56297;SDS011;42208;6.376;-10.782;2022-07-09T01:15:00;30.17;;;13.45;;
56297;SDS011;42208;6.376;-10.782;2022-07-09T01:17:28;31.13;;;10.73;;
56297;SDS011;42208;6.376;-10.782;2022-07-09T01:20:04;39.53;;;16.02;;
56297;SDS011;42208;6.376;-10.782;2022-07-09T01:22:33;91.30;;;36.05;;
56297;SDS011;42208;6.376;-10.782;2022-07-09T01:25:02;105.80;;;42.90;;
56297;SDS011;42208;6.376;-10.782;2022-07-09T01:27:35;96.15;;;39.53;;
56297;SDS011;42208;6.376;-10.782;2022-07-09T01:30:04;87.78;;;37.80;;
56297;SDS011;42208;6.376;-10.782;2022-07-09T01:32:32;78.50;;;29.73;;
56297;SDS011;42208;6.376;-10.782;2022-07-09T01:35:01;74.13;;;28.55;;
56297;SDS011;42208;6.376;-10.782;2022-07-09T01:37:29;48.20;;;19.83;;
56297;SDS011;42208;6.376;-10.782;2022-07-09T01:39:57;34.22;;;14.13;;
56297;SDS011;42208;6.376;-10.782;2022-07-09T01:42:26;53.60;;;21.05;;
56297;SDS011;42208;6.376;-10.782;2022-07-09T01:44:54;67.78;;;26.95;;
56297;SDS011;42208;6.376;-10.782;2022-07-09T01:47:22;54.42;;;24.23;;
56297;SDS011;42208;6.376;-10.782;2022-07-09T01:49:50;68.25;;;27.85;;
56297;SDS011;42208;6.376;-10.782;2022-07-09T01:52:18;67.90;;;27.98;;
56297;SDS011;42208;6.376;-10.782;2022-07-09T01:54:47;43.60;;;15.25;;
56297;SDS011;42208;6.376;-10.782;2022-07-09T01:57:15;65.35;;;26.10;;
56297;SDS011;42208;6.376;-10.782;2022-07-09T01:59:43;36.55;;;12.95;;
56297;SDS011;42208;6.376;-10.782;2022-07-09T02:02:12;27.65;;;11.57;;
56297;SDS011;42208;6.376;-10.782;2022-07-09T02:04:40;29.52;;;10.30;;
56297;SDS011;42208;6.376;-10.782;2022-07-09T02:07:09;29.63;;;11.43;;
56297;SDS011;42208;6.376;-10.782;2022-07-09T02:09:37;27.35;;;11.30;;
56297;SDS011;42208;6.376;-10.782;2022-07-09T02:12:06;30.15;;;10.95;;
56297;SDS011;42208;6.376;-10.782;2022-07-09T02:14:34;34.00;;;15.10;;
56297;SDS011;42208;6.376;-10.782;2022-07-09T02:17:03;36.60;;;16.98;;
56297;SDS011;42208;6.376;-10.782;2022-07-09T02:19:32;47.15;;;18.55;;
56297;SDS011;42208;6.376;-10.782;2022-07-09T02:22:00;26.48;;;10.45;;
56297;SDS011;42208;6.376;-10.782;2022-07-09T02:24:28;39.30;;;12.85;;
56297;SDS011;42208;6.376;-10.782;2022-07-09T02:26:56;34.38;;;11.50;;
56297;SDS011;42208;6.376;-10.782;2022-07-09T02:29:24;27.58;;;10.63;;
56297;SDS011;42208;6.376;-10.782;2022-07-09T02:31:53;35.17;;;12.27;;
56297;SDS011;42208;6.376;-10.782;2022-07-09T02:34:21;38.72;;;16.17;;
56297;SDS011;42208;6.376;-10.782;2022-07-09T02:36:50;61.38;;;24.65;;
56297;SDS011;42208;6.376;-10.782;2022-07-09T02:39:18;32.38;;;12.57;;
56297;SDS011;42208;6.376;-10.782;2022-07-09T02:41:46;51.13;;;18.75;;
56297;SDS011;42208;6.376;-10.782;2022-07-09T02:44:15;65.38;;;26.73;;
56297;SDS011;42208;6.376;-10.782;2022-07-09T02:46:43;53.25;;;20.23;;
56297;SDS011;42208;6.376;-10.782;2022-07-09T02:49:11;42.03;;;15.80;;
56297;SDS011;42208;6.376;-10.782;2022-07-09T02:51:39;37.50;;;12.38;;
56297;SDS011;42208;6.376;-10.782;2022-07-09T02:54:08;35.17;;;11.65;;
56297;SDS011;42208;6.376;-10.782;2022-07-09T02:56:36;33.15;;;11.45;;
56297;SDS011;42208;6.376;-10.782;2022-07-09T02:59:04;36.08;;;11.43;;
56297;SDS011;42208;6.376;-10.782;2022-07-09T03:01:32;30.70;;;11.15;;
56297;SDS011;42208;6.376;-10.782;2022-07-09T03:04:01;29.33;;;11.10;;
56297;SDS011;42208;6.376;-10.782;2022-07-09T03:06:29;46.17;;;15.32;;
56297;SDS011;42208;6.376;-10.782;2022-07-09T03:08:57;48.67;;;19.38;;
56297;SDS011;42208;6.376;-10.782;2022-07-09T03:11:26;69.50;;;25.10;;
56297;SDS011;42208;6.376;-10.782;2022-07-09T03:13:54;71.05;;;26.92;;
56297;SDS011;42208;6.376;-10.782;2022-07-09T03:16:22;45.85;;;18.08;;
56297;SDS011;42208;6.376;-10.782;2022-07-09T03:18:51;33.38;;;13.45;;
56297;SDS011;42208;6.376;-10.782;2022-07-09T03:21:19;24.65;;;11.05;;
56297;SDS011;42208;6.376;-10.782;2022-07-09T03:23:47;29.48;;;10.65;;
56297;SDS011;42208;6.376;-10.782;2022-07-09T03:26:15;30.83;;;12.45;;
56297;SDS011;42208;6.376;-10.782;2022-07-09T03:28:43;36.22;;;11.80;;
56297;SDS011;42208;6.376;-10.782;2022-07-09T03:31:12;39.20;;;12.80;;
56297;SDS011;42208;6.376;-10.782;2022-07-09T03:33:40;28.80;;;12.40;;
56297;SDS011;42208;6.376;-10.782;2022-07-09T03:36:08;46.47;;;17.77;;
56297;SDS011;42208;6.376;-10.782;2022-07-09T03:38:36;69.97;;;26.15;;
56297;SDS011;42208;6.376;-10.782;2022-07-09T03:41:05;53.55;;;20.33;;
56297;SDS011;42208;6.376;-10.782;2022-07-09T03:43:33;33.15;;;12.82;;
56297;SDS011;42208;6.376;-10.782;2022-07-09T03:46:01;30.52;;;12.65;;
56297;SDS011;42208;6.376;-10.782;2022-07-09T03:48:29;30.40;;;11.23;;
56297;SDS011;42208;6.376;-10.782;2022-07-09T03:50:58;30.50;;;11.35;;
56297;SDS011;42208;6.376;-10.782;2022-07-09T03:53:26;24.58;;;11.77;;
56297;SDS011;42208;6.376;-10.782;2022-07-09T03:55:54;33.97;;;13.73;;
56297;SDS011;42208;6.376;-10.782;2022-07-09T03:58:23;32.75;;;10.90;;
56297;SDS011;42208;6.376;-10.782;2022-07-09T04:00:51;27.95;;;10.70;;
56297;SDS011;42208;6.376;-10.782;2022-07-09T04:03:19;37.53;;;17.25;;
56297;SDS011;42208;6.376;-10.782;2022-07-09T04:05:47;61.47;;;26.65;;
56297;SDS011;42208;6.376;-10.782;2022-07-09T04:08:16;57.78;;;24.92;;
56297;SDS011;42208;6.376;-10.782;2022-07-09T04:10:44;60.40;;;27.02;;
56297;SDS011;42208;6.376;-10.782;2022-07-09T04:13:12;64.40;;;28.02;;
56297;SDS011;42208;6.376;-10.782;2022-07-09T04:15:40;60.22;;;24.35;;
56297;SDS011;42208;6.376;-10.782;2022-07-09T04:18:09;47.15;;;18.85;;
56297;SDS011;42208;6.376;-10.782;2022-07-09T04:20:37;48.63;;;20.50;;
56297;SDS011;42208;6.376;-10.782;2022-07-09T04:23:05;86.80;;;34.10;;
56297;SDS011;42208;6.376;-10.782;2022-07-09T04:25:33;47.13;;;19.08;;
56297;SDS011;42208;6.376;-10.782;2022-07-09T04:28:02;38.75;;;13.80;;
56297;SDS011;42208;6.376;-10.782;2022-07-09T04:30:30;35.05;;;14.50;;
56297;SDS011;42208;6.376;-10.782;2022-07-09T04:32:59;34.17;;;14.40;;
56297;SDS011;42208;6.376;-10.782;2022-07-09T04:35:27;31.90;;;13.73;;
56297;SDS011;42208;6.376;-10.782;2022-07-09T04:37:55;27.00;;;12.20;;
56297;SDS011;42208;6.376;-10.782;2022-07-09T04:40:24;28.95;;;12.75;;
56297;SDS011;42208;6.376;-10.782;2022-07-09T04:42:52;34.78;;;12.68;;
56297;SDS011;42208;6.376;-10.782;2022-07-09T04:45:20;29.60;;;12.68;;
56297;SDS011;42208;6.376;-10.782;2022-07-09T04:47:49;26.90;;;13.45;;
56297;SDS011;42208;6.376;-10.782;2022-07-09T04:50:17;30.73;;;12.10;;
56297;SDS011;42208;6.376;-10.782;2022-07-09T04:52:45;28.27;;;14.15;;
56297;SDS011;42208;6.376;-10.782;2022-07-09T04:55:13;33.13;;;14.20;;
56297;SDS011;42208;6.376;-10.782;2022-07-09T04:57:42;28.48;;;12.20;;
56297;SDS011;42208;6.376;-10.782;2022-07-09T05:00:11;38.17;;;20.00;;
56297;SDS011;42208;6.376;-10.782;2022-07-09T05:02:39;63.63;;;26.60;;
56297;SDS011;42208;6.376;-10.782;2022-07-09T05:05:07;71.50;;;31.20;;
56297;SDS011;42208;6.376;-10.782;2022-07-09T05:07:36;96.88;;;43.30;;
56297;SDS011;42208;6.376;-10.782;2022-07-09T05:10:05;102.22;;;44.15;;
56297;SDS011;42208;6.376;-10.782;2022-07-09T05:12:33;56.50;;;26.23;;
56297;SDS011;42208;6.376;-10.782;2022-07-09T05:15:02;59.22;;;26.75;;
56297;SDS011;42208;6.376;-10.782;2022-07-09T05:17:33;52.75;;;21.38;;
56297;SDS011;42208;6.376;-10.782;2022-07-09T05:20:05;45.23;;;20.40;;
56297;SDS011;42208;6.376;-10.782;2022-07-09T05:22:35;38.60;;;16.50;;
56297;SDS011;42208;6.376;-10.782;2022-07-09T05:25:04;43.58;;;18.75;;
56297;SDS011;42208;6.376;-10.782;2022-07-09T05:27:40;54.35;;;24.52;;
56297;SDS011;42208;6.376;-10.782;2022-07-09T05:30:09;61.90;;;26.80;;
56297;SDS011;42208;6.376;-10.782;2022-07-09T05:32:44;60.70;;;27.58;;
56297;SDS011;42208;6.376;-10.782;2022-07-09T05:35:13;60.17;;;26.23;;
56297;SDS011;42208;6.376;-10.782;2022-07-09T05:37:42;38.63;;;19.23;;
56297;SDS011;42208;6.376;-10.782;2022-07-09T05:40:11;35.17;;;15.55;;
56297;SDS011;42208;6.376;-10.782;2022-07-09T05:42:39;35.70;;;14.25;;
56297;SDS011;42208;6.376;-10.782;2022-07-09T05:45:08;34.42;;;15.27;;
56297;SDS011;42208;6.376;-10.782;2022-07-09T05:47:36;35.65;;;15.10;;
56297;SDS011;42208;6.376;-10.782;2022-07-09T05:50:04;38.45;;;16.00;;
56297;SDS011;42208;6.376;-10.782;2022-07-09T05:52:33;38.28;;;17.52;;
56297;SDS011;42208;6.376;-10.782;2022-07-09T05:55:01;31.90;;;15.68;;
56297;SDS011;42208;6.376;-10.782;2022-07-09T05:57:34;48.35;;;16.95;;
56297;SDS011;42208;6.376;-10.782;2022-07-09T06:00:03;43.97;;;16.00;;
56297;SDS011;42208;6.376;-10.782;2022-07-09T06:02:32;43.35;;;15.25;;
56297;SDS011;42208;6.376;-10.782;2022-07-09T06:05:00;35.67;;;14.25;;
56297;SDS011;42208;6.376;-10.782;2022-07-09T06:07:29;47.60;;;16.05;;
56297;SDS011;42208;6.376;-10.782;2022-07-09T06:09:57;39.63;;;14.20;;
56297;SDS011;42208;6.376;-10.782;2022-07-09T06:12:25;39.50;;;11.98;;
56297;SDS011;42208;6.376;-10.782;2022-07-09T06:14:53;35.78;;;10.45;;
56297;SDS011;42208;6.376;-10.782;2022-07-09T06:17:22;42.65;;;11.27;;
56297;SDS011;42208;6.376;-10.782;2022-07-09T06:19:50;34.28;;;11.02;;
56297;SDS011;42208;6.376;-10.782;2022-07-09T06:22:18;30.73;;;10.82;;
56297;SDS011;42208;6.376;-10.782;2022-07-09T06:24:46;39.38;;;11.10;;
56297;SDS011;42208;6.376;-10.782;2022-07-09T06:27:14;45.15;;;14.68;;
56297;SDS011;42208;6.376;-10.782;2022-07-09T06:29:42;55.75;;;15.05;;
56297;SDS011;42208;6.376;-10.782;2022-07-09T06:32:11;62.20;;;15.93;;
56297;SDS011;42208;6.376;-10.782;2022-07-09T06:34:39;50.05;;;16.05;;
56297;SDS011;42208;6.376;-10.782;2022-07-09T06:37:07;49.58;;;16.17;;
56297;SDS011;42208;6.376;-10.782;2022-07-09T06:39:35;51.58;;;16.65;;
56297;SDS011;42208;6.376;-10.782;2022-07-09T06:42:04;45.75;;;16.15;;
56297;SDS011;42208;6.376;-10.782;2022-07-09T06:44:35;46.88;;;16.65;;
56297;SDS011;42208;6.376;-10.782;2022-07-09T06:47:04;40.88;;;17.75;;
56297;SDS011;42208;6.376;-10.782;2022-07-09T06:49:32;43.58;;;17.80;;
56297;SDS011;42208;6.376;-10.782;2022-07-09T06:52:01;36.55;;;15.45;;
56297;SDS011;42208;6.376;-10.782;2022-07-09T06:54:30;37.83;;;16.48;;
56297;SDS011;42208;6.376;-10.782;2022-07-09T06:56:59;35.22;;;16.63;;
56297;SDS011;42208;6.376;-10.782;2022-07-09T06:59:32;28.95;;;15.85;;
56297;SDS011;42208;6.376;-10.782;2022-07-09T07:02:00;30.00;;;14.93;;
56297;SDS011;42208;6.376;-10.782;2022-07-09T07:04:29;22.30;;;12.60;;
56297;SDS011;42208;6.376;-10.782;2022-07-09T07:06:57;23.95;;;12.80;;
56297;SDS011;42208;6.376;-10.782;2022-07-09T07:09:26;18.13;;;10.15;;
56297;SDS011;42208;6.376;-10.782;2022-07-09T07:11:54;20.58;;;10.20;;
56297;SDS011;42208;6.376;-10.782;2022-07-09T07:14:22;14.73;;;8.95;;
56297;SDS011;42208;6.376;-10.782;2022-07-09T07:16:50;19.48;;;9.13;;
56297;SDS011;42208;6.376;-10.782;2022-07-09T07:19:19;14.70;;;9.27;;
56297;SDS011;42208;6.376;-10.782;2022-07-09T07:21:47;17.23;;;9.98;;
56297;SDS011;42208;6.376;-10.782;2022-07-09T07:24:16;14.15;;;8.88;;
56297;SDS011;42208;6.376;-10.782;2022-07-09T07:26:44;13.07;;;9.20;;
56297;SDS011;42208;6.376;-10.782;2022-07-09T07:29:12;13.57;;;9.25;;
56297;SDS011;42208;6.376;-10.782;2022-07-09T07:31:40;21.65;;;12.35;;
56297;SDS011;42208;6.376;-10.782;2022-07-09T07:34:09;18.48;;;11.75;;
56297;SDS011;42208;6.376;-10.782;2022-07-09T07:36:37;30.48;;;17.63;;
56297;SDS011;42208;6.376;-10.782;2022-07-09T07:39:05;23.83;;;13.73;;
56297;SDS011;42208;6.376;-10.782;2022-07-09T07:41:34;23.58;;;13.18;;
56297;SDS011;42208;6.376;-10.782;2022-07-09T07:44:02;20.27;;;11.13;;
56297;SDS011;42208;6.376;-10.782;2022-07-09T07:46:30;20.45;;;13.10;;
56297;SDS011;42208;6.376;-10.782;2022-07-09T07:48:59;20.98;;;12.85;;
56297;SDS011;42208;6.376;-10.782;2022-07-09T07:51:27;25.42;;;14.40;;
56297;SDS011;42208;6.376;-10.782;2022-07-09T07:53:55;23.10;;;13.43;;
56297;SDS011;42208;6.376;-10.782;2022-07-09T07:56:23;21.88;;;12.05;;
56297;SDS011;42208;6.376;-10.782;2022-07-09T07:58:51;25.20;;;10.77;;
56297;SDS011;42208;6.376;-10.782;2022-07-09T08:01:20;31.02;;;11.25;;
56297;SDS011;42208;6.376;-10.782;2022-07-09T08:03:48;30.27;;;16.92;;
56297;SDS011;42208;6.376;-10.782;2022-07-09T08:06:16;39.30;;;24.67;;
56297;SDS011;42208;6.376;-10.782;2022-07-09T08:08:44;36.30;;;21.98;;
56297;SDS011;42208;6.376;-10.782;2022-07-09T08:11:12;32.30;;;20.25;;
56297;SDS011;42208;6.376;-10.782;2022-07-09T08:13:41;27.75;;;15.43;;
56297;SDS011;42208;6.376;-10.782;2022-07-09T08:16:09;27.20;;;14.35;;
56297;SDS011;42208;6.376;-10.782;2022-07-09T08:18:37;23.42;;;13.05;;
56297;SDS011;42208;6.376;-10.782;2022-07-09T08:21:07;26.40;;;14.52;;
56297;SDS011;42208;6.376;-10.782;2022-07-09T08:23:35;24.33;;;14.65;;
56297;SDS011;42208;6.376;-10.782;2022-07-09T08:26:03;27.75;;;13.73;;
56297;SDS011;42208;6.376;-10.782;2022-07-09T08:28:32;35.80;;;16.52;;
56297;SDS011;42208;6.376;-10.782;2022-07-09T08:31:00;33.53;;;15.98;;
56297;SDS011;42208;6.376;-10.782;2022-07-09T08:33:29;33.65;;;16.60;;
56297;SDS011;42208;6.376;-10.782;2022-07-09T08:35:57;28.70;;;14.32;;
56297;SDS011;42208;6.376;-10.782;2022-07-09T08:38:25;30.88;;;14.50;;
56297;SDS011;42208;6.376;-10.782;2022-07-09T08:40:53;23.13;;;11.88;;
56297;SDS011;42208;6.376;-10.782;2022-07-09T08:43:23;25.45;;;10.00;;
56297;SDS011;42208;6.376;-10.782;2022-07-09T08:45:52;23.05;;;10.00;;
56297;SDS011;42208;6.376;-10.782;2022-07-09T08:48:21;26.10;;;13.98;;
56297;SDS011;42208;6.376;-10.782;2022-07-09T08:50:49;8.65;;;6.07;;
56297;SDS011;42208;6.376;-10.782;2022-07-09T08:53:19;8.63;;;4.22;;
56297;SDS011;42208;6.376;-10.782;2022-07-09T08:55:47;7.53;;;3.45;;
56297;SDS011;42208;6.376;-10.782;2022-07-09T08:58:16;7.20;;;3.08;;
56297;SDS011;42208;6.376;-10.782;2022-07-09T09:00:44;12.05;;;2.90;;
56297;SDS011;42208;6.376;-10.782;2022-07-09T09:03:12;8.60;;;2.47;;
56297;SDS011;42208;6.376;-10.782;2022-07-09T09:05:40;4.43;;;2.55;;
56297;SDS011;42208;6.376;-10.782;2022-07-09T09:08:18;7.93;;;2.97;;
56297;SDS011;42208;6.376;-10.782;2022-07-09T09:10:49;10.20;;;3.25;;
56297;SDS011;42208;6.376;-10.782;2022-07-09T09:13:18;8.80;;;3.38;;
56297;SDS011;42208;6.376;-10.782;2022-07-09T09:15:46;12.07;;;3.72;;
56297;SDS011;42208;6.376;-10.782;2022-07-09T09:18:14;13.02;;;3.65;;
56297;SDS011;42208;6.376;-10.782;2022-07-09T09:20:45;15.20;;;4.65;;
56297;SDS011;42208;6.376;-10.782;2022-07-09T09:23:17;12.57;;;4.97;;
56297;SDS011;42208;6.376;-10.782;2022-07-09T09:25:45;13.53;;;5.70;;
56297;SDS011;42208;6.376;-10.782;2022-07-09T09:28:13;12.98;;;4.50;;
56297;SDS011;42208;6.376;-10.782;2022-07-09T09:30:42;16.25;;;4.55;;
56297;SDS011;42208;6.376;-10.782;2022-07-09T09:33:13;18.08;;;4.55;;
56297;SDS011;42208;6.376;-10.782;2022-07-09T09:38:11;17.77;;;5.38;;
56297;SDS011;42208;6.376;-10.782;2022-07-09T09:40:44;15.88;;;4.50;;
56297;SDS011;42208;6.376;-10.782;2022-07-09T09:43:12;19.02;;;5.00;;
56297;SDS011;42208;6.376;-10.782;2022-07-09T09:45:47;20.17;;;5.20;;
56297;SDS011;42208;6.376;-10.782;2022-07-09T09:48:16;11.77;;;4.60;;
56297;SDS011;42208;6.376;-10.782;2022-07-09T09:50:44;17.58;;;5.43;;
56297;SDS011;42208;6.376;-10.782;2022-07-09T09:53:16;19.00;;;5.47;;
56297;SDS011;42208;6.376;-10.782;2022-07-09T09:55:45;11.55;;;4.47;;
56297;SDS011;42208;6.376;-10.782;2022-07-09T09:58:18;16.48;;;4.97;;
56297;SDS011;42208;6.376;-10.782;2022-07-09T10:00:46;11.80;;;5.25;;
56297;SDS011;42208;6.376;-10.782;2022-07-09T10:03:15;22.48;;;6.82;;
56297;SDS011;42208;6.376;-10.782;2022-07-09T10:05:44;22.48;;;6.18;;
56297;SDS011;42208;6.376;-10.782;2022-07-09T10:08:12;20.27;;;6.90;;
56297;SDS011;42208;6.376;-10.782;2022-07-09T10:10:49;16.25;;;7.15;;
56297;SDS011;42208;6.376;-10.782;2022-07-09T10:13:19;19.95;;;6.55;;
56297;SDS011;42208;6.376;-10.782;2022-07-09T10:15:50;16.42;;;5.78;;
56297;SDS011;42208;6.376;-10.782;2022-07-09T10:18:22;18.97;;;4.97;;
56297;SDS011;42208;6.376;-10.782;2022-07-09T10:20:54;16.15;;;5.38;;
56297;SDS011;42208;6.376;-10.782;2022-07-09T10:23:24;17.33;;;5.90;;
56297;SDS011;42208;6.376;-10.782;2022-07-09T10:25:52;14.13;;;5.22;;
56297;SDS011;42208;6.376;-10.782;2022-07-09T10:28:20;13.90;;;5.57;;
56297;SDS011;42208;6.376;-10.782;2022-07-09T10:30:49;20.55;;;6.15;;
56297;SDS011;42208;6.376;-10.782;2022-07-09T10:33:22;11.80;;;5.53;;
56297;SDS011;42208;6.376;-10.782;2022-07-09T10:35:51;14.95;;;5.43;;
56297;SDS011;42208;6.376;-10.782;2022-07-09T10:38:20;15.52;;;5.93;;
56297;SDS011;42208;6.376;-10.782;2022-07-09T10:40:56;25.33;;;6.35;;
56297;SDS011;42208;6.376;-10.782;2022-07-09T10:43:38;14.27;;;6.38;;
56297;SDS011;42208;6.376;-10.782;2022-07-09T10:46:10;18.60;;;7.53;;
56297;SDS011;42208;6.376;-10.782;2022-07-09T10:48:39;24.20;;;6.72;;
56297;SDS011;42208;6.376;-10.782;2022-07-09T10:51:08;20.10;;;5.13;;
56297;SDS011;42208;6.376;-10.782;2022-07-09T10:53:44;18.95;;;5.82;;
56297;SDS011;42208;6.376;-10.782;2022-07-09T10:56:16;14.23;;;5.35;;
56297;SDS011;42208;6.376;-10.782;2022-07-09T10:58:49;16.45;;;5.88;;
56297;SDS011;42208;6.376;-10.782;2022-07-09T11:01:22;17.63;;;4.93;;
56297;SDS011;42208;6.376;-10.782;2022-07-09T11:03:52;13.88;;;5.40;;
56297;SDS011;42208;6.376;-10.782;2022-07-09T11:06:21;12.65;;;4.75;;
56297;SDS011;42208;6.376;-10.782;2022-07-09T11:08:49;14.73;;;6.55;;
56297;SDS011;42208;6.376;-10.782;2022-07-09T11:11:21;18.23;;;6.90;;
56297;SDS011;42208;6.376;-10.782;2022-07-09T11:13:53;22.33;;;7.28;;
56297;SDS011;42208;6.376;-10.782;2022-07-09T11:16:22;17.52;;;6.25;;
56297;SDS011;42208;6.376;-10.782;2022-07-09T11:18:52;24.42;;;6.60;;
56297;SDS011;42208;6.376;-10.782;2022-07-09T11:21:23;22.48;;;6.97;;
56297;SDS011;42208;6.376;-10.782;2022-07-09T11:23:53;22.88;;;8.60;;
56297;SDS011;42208;6.376;-10.782;2022-07-09T11:26:21;23.38;;;7.80;;
56297;SDS011;42208;6.376;-10.782;2022-07-09T11:28:49;23.38;;;7.78;;
56297;SDS011;42208;6.376;-10.782;2022-07-09T11:31:18;26.85;;;7.82;;
56297;SDS011;42208;6.376;-10.782;2022-07-09T11:33:46;19.98;;;7.88;;
56297;SDS011;42208;6.376;-10.782;2022-07-09T11:36:14;21.98;;;8.63;;
56297;SDS011;42208;6.376;-10.782;2022-07-09T11:38:47;28.58;;;9.65;;
56297;SDS011;42208;6.376;-10.782;2022-07-09T11:43:50;22.73;;;8.20;;
56297;SDS011;42208;6.376;-10.782;2022-07-09T11:46:19;23.52;;;8.35;;
56297;SDS011;42208;6.376;-10.782;2022-07-09T11:48:49;20.90;;;9.82;;
56297;SDS011;42208;6.376;-10.782;2022-07-09T11:54:01;24.92;;;9.23;;
56297;SDS011;42208;6.376;-10.782;2022-07-09T11:59:30;24.73;;;9.63;;
56297;SDS011;42208;6.376;-10.782;2022-07-09T12:01:59;22.70;;;8.88;;
56297;SDS011;42208;6.376;-10.782;2022-07-09T12:04:30;28.58;;;10.35;;
56297;SDS011;42208;6.376;-10.782;2022-07-09T12:06:58;21.05;;;9.65;;
56297;SDS011;42208;6.376;-10.782;2022-07-09T12:09:27;20.25;;;10.05;;
56297;SDS011;42208;6.376;-10.782;2022-07-09T12:11:58;21.83;;;10.23;;
56297;SDS011;42208;6.376;-10.782;2022-07-09T12:14:26;27.08;;;10.45;;
56297;SDS011;42208;6.376;-10.782;2022-07-09T12:16:56;24.75;;;10.30;;
56297;SDS011;42208;6.376;-10.782;2022-07-09T12:19:25;20.00;;;9.02;;
56297;SDS011;42208;6.376;-10.782;2022-07-09T12:21:53;19.60;;;7.90;;
56297;SDS011;42208;6.376;-10.782;2022-07-09T12:24:25;22.50;;;8.35;;
56297;SDS011;42208;6.376;-10.782;2022-07-09T12:26:53;19.55;;;8.90;;
56297;SDS011;42208;6.376;-10.782;2022-07-09T12:29:42;20.15;;;8.75;;
56297;SDS011;42208;6.376;-10.782;2022-07-09T12:32:10;23.13;;;8.05;;
56297;SDS011;42208;6.376;-10.782;2022-07-09T12:34:38;16.48;;;7.75;;
56297;SDS011;42208;6.376;-10.782;2022-07-09T12:37:07;17.13;;;7.10;;
56297;SDS011;42208;6.376;-10.782;2022-07-09T12:39:35;17.67;;;6.35;;
56297;SDS011;42208;6.376;-10.782;2022-07-09T12:42:03;17.52;;;6.53;;
56297;SDS011;42208;6.376;-10.782;2022-07-09T12:44:32;14.68;;;5.60;;
56297;SDS011;42208;6.376;-10.782;2022-07-09T12:47:00;15.85;;;6.22;;
56297;SDS011;42208;6.376;-10.782;2022-07-09T12:49:28;11.68;;;5.28;;
56297;SDS011;42208;6.376;-10.782;2022-07-09T12:51:57;14.32;;;6.03;;
56297;SDS011;42208;6.376;-10.782;2022-07-09T12:54:25;7.65;;;4.55;;
56297;SDS011;42208;6.376;-10.782;2022-07-09T12:56:53;8.85;;;4.82;;
56297;SDS011;42208;6.376;-10.782;2022-07-09T12:59:37;14.05;;;5.90;;
56297;SDS011;42208;6.376;-10.782;2022-07-09T13:02:06;7.85;;;4.55;;
56297;SDS011;42208;6.376;-10.782;2022-07-09T13:04:35;7.88;;;3.72;;
56297;SDS011;42208;6.376;-10.782;2022-07-09T13:07:03;10.15;;;3.60;;
56297;SDS011;42208;6.376;-10.782;2022-07-09T13:09:31;9.63;;;3.58;;
56297;SDS011;42208;6.376;-10.782;2022-07-09T13:12:00;6.88;;;3.78;;
56297;SDS011;42208;6.376;-10.782;2022-07-09T13:14:28;10.90;;;3.40;;
56297;SDS011;42208;6.376;-10.782;2022-07-09T13:16:56;13.30;;;3.55;;
56297;SDS011;42208;6.376;-10.782;2022-07-09T13:19:44;5.32;;;2.88;;
56297;SDS011;42208;6.376;-10.782;2022-07-09T13:22:13;9.75;;;4.47;;
56297;SDS011;42208;6.376;-10.782;2022-07-09T13:24:41;6.60;;;3.35;;
56297;SDS011;42208;6.376;-10.782;2022-07-09T13:27:09;8.18;;;3.45;;
56297;SDS011;42208;6.376;-10.782;2022-07-09T13:29:38;6.32;;;2.70;;
56297;SDS011;42208;6.376;-10.782;2022-07-09T13:32:06;5.25;;;2.58;;
56297;SDS011;42208;6.376;-10.782;2022-07-09T13:34:35;5.68;;;2.90;;
56297;SDS011;42208;6.376;-10.782;2022-07-09T13:37:03;5.80;;;2.45;;
56297;SDS011;42208;6.376;-10.782;2022-07-09T13:39:32;5.97;;;3.08;;
56297;SDS011;42208;6.376;-10.782;2022-07-09T13:42:00;5.45;;;2.47;;
56297;SDS011;42208;6.376;-10.782;2022-07-09T13:44:29;5.82;;;2.85;;
56297;SDS011;42208;6.376;-10.782;2022-07-09T13:46:57;4.88;;;2.70;;
56297;SDS011;42208;6.376;-10.782;2022-07-09T13:49:25;6.15;;;3.00;;
56297;SDS011;42208;6.376;-10.782;2022-07-09T13:51:53;6.72;;;3.03;;
56297;SDS011;42208;6.376;-10.782;2022-07-09T13:54:21;5.65;;;2.80;;
56297;SDS011;42208;6.376;-10.782;2022-07-09T13:56:50;6.13;;;3.08;;
56297;SDS011;42208;6.376;-10.782;2022-07-09T13:59:18;6.63;;;3.05;;
56297;SDS011;42208;6.376;-10.782;2022-07-09T14:01:46;5.10;;;3.20;;
56297;SDS011;42208;6.376;-10.782;2022-07-09T14:04:15;5.15;;;2.55;;
56297;SDS011;42208;6.376;-10.782;2022-07-09T14:06:43;4.03;;;2.40;;
56297;SDS011;42208;6.376;-10.782;2022-07-09T14:09:13;5.82;;;2.42;;
56297;SDS011;42208;6.376;-10.782;2022-07-09T14:11:42;5.85;;;2.67;;
56297;SDS011;42208;6.376;-10.782;2022-07-09T14:14:10;5.65;;;2.60;;
56297;SDS011;42208;6.376;-10.782;2022-07-09T14:16:39;3.22;;;1.70;;
56297;SDS011;42208;6.376;-10.782;2022-07-09T14:19:07;2.95;;;2.10;;
56297;SDS011;42208;6.376;-10.782;2022-07-09T14:21:35;4.35;;;1.90;;
56297;SDS011;42208;6.376;-10.782;2022-07-09T14:24:11;6.05;;;2.25;;
56297;SDS011;42208;6.376;-10.782;2022-07-09T14:26:40;3.30;;;1.80;;
56297;SDS011;42208;6.376;-10.782;2022-07-09T14:29:09;5.18;;;2.47;;
56297;SDS011;42208;6.376;-10.782;2022-07-09T14:31:38;5.90;;;2.75;;
56297;SDS011;42208;6.376;-10.782;2022-07-09T14:34:06;5.93;;;3.42;;
56297;SDS011;42208;6.376;-10.782;2022-07-09T14:36:34;3.70;;;2.67;;